Time;durP1;ratioP1;P1;durP2;ratioP2;P2;SDS_P1;SDS_P2;PMS_P1;PMS_P2;Temp;Humidity;BMP_temperature;BMP_pressure;BME280_temperature;BME280_humidity;BME280_pressure;Samples;Min_cycle;Max_cycle;Signal;HPM_P1;HPM_P2
2023/01/29 00:00:52;;;;;;;;;;;;;;;;;;6238576;22;20449;-88
2023/01/29 00:03:18;;;;;;;;;;;;;;;;;;6262923;22;19923;-86
2023/01/29 00:05:44;;;;;;;;;;;;;;;;;;6240424;22;19974;-87
2023/01/29 00:08:10;;;;;;;;;;;;;;;;;;6261508;22;20291;-88
2023/01/29 00:10:36;;;;;;;;;;;;;;;;;;6263592;22;19937;-87
2023/01/29 00:13:02;;;;;;;;;;;;;;;;;;6241143;22;20259;-87
2023/01/29 00:15:28;;;;;;;;;;;;;;;;;;6258225;22;19918;-87
2023/01/29 00:17:53;;;;;;;;;;;;;;;;;;6237969;22;20386;-87
2023/01/29 00:20:19;;;;;;;;;;;;;;;;;;6238400;22;19919;-87
2023/01/29 00:22:45;;;;;;;;;;;;;;;;;;6265090;22;20415;-87
2023/01/29 00:25:11;;;;;;;;;;;;;;;;;;6239011;22;19994;-88
2023/01/29 00:27:37;;;;;;;;;;;;;;;;;;6265005;22;20331;-87
2023/01/29 00:30:13;;;;;;;;;;;;;;;;;;6238328;22;19926;-87
2023/01/29 00:32:39;;;;;;;;;;;;;;;;;;6237561;22;19923;-87
2023/01/29 00:35:05;;;;;;;;;;;;;;;;;;6235575;22;19919;-88
2023/01/29 00:37:31;;;;;;;;;;;;;;;;;;6236087;22;19976;-87
2023/01/29 00:39:57;;;;;;;;;;;;;;;;;;6262467;22;19919;-87
2023/01/29 00:45:08;;;;;;;;;;;;;;;;;;6262814;22;20239;-87
2023/01/29 00:47:34;;;;;;;;;;;;;;;;;;6261696;22;19923;-87
2023/01/29 00:50:00;;;;;;;;;;;;;;;;;;6266690;22;20112;-87
2023/01/29 00:52:26;;;;;;;;;;;;;;;;;;6263452;22;20005;-88
2023/01/29 00:54:52;;;;;;;;;;;;;;;;;;6265381;22;19964;-87
2023/01/29 00:57:18;;;;;;;;;;;;;;;;;;6235678;22;19988;-88
2023/01/29 00:59:44;;;;;;;;;;;;;;;;;;6240239;22;19923;-87
2023/01/29 01:04:55;;;;;;;;;;;;;;;;;;6263248;22;20408;-88
2023/01/29 01:07:21;;;;;;;;;;;;;;;;;;6260688;22;20013;-88
2023/01/29 01:12:31;;;;;;;;;;;;;;;;;;6261502;22;19938;-87
2023/01/29 01:14:57;;;;;;;;;;;;;;;;;;6265076;22;19918;-87
2023/01/29 01:17:23;;;;;;;;;;;;;;;;;;6235615;22;20042;-88
2023/01/29 01:19:49;;;;;;;;;;;;;;;;;;6266099;22;19919;-87
2023/01/29 01:22:15;;;;;;;;;;;;;;;;;;6262081;22;19918;-88
2023/01/29 01:24:41;;;;;;;;;;;;;;;;;;6237829;22;19919;-88
2023/01/29 01:27:10;;;;;;;;;;;;;;;;;;6264534;22;20022;-88
2023/01/29 01:29:36;;;;;;;;;;;;;;;;;;6261199;22;19919;-88
2023/01/29 01:32:02;;;;;;;;;;;;;;;;;;6262375;22;19930;-88
2023/01/29 01:34:28;;;;;;;;;;;;;;;;;;6260906;22;20958;-87
2023/01/29 01:36:57;;;;;;;;;;;;;;;;;;6263765;22;19928;-87
2023/01/29 01:39:23;;;;;;;;;;;;;;;;;;6235568;22;19957;-87
2023/01/29 01:41:49;;;;;;;;;;;;;;;;;;6265553;22;19915;-87
2023/01/29 01:44:15;;;;;;;;;;;;;;;;;;6259176;22;19966;-88
2023/01/29 01:46:41;;;;;;;;;;;;;;;;;;6263692;22;19915;-87
2023/01/29 01:49:10;;;;;;;;;;;;;;;;;;6236832;22;20302;-87
2023/01/29 01:51:36;;;;;;;;;;;;;;;;;;6237222;22;20271;-87
2023/01/29 01:54:02;;;;;;;;;;;;;;;;;;6264456;22;19919;-87
2023/01/29 01:56:37;;;;;;;;;;;;;;;;;;6238577;22;20021;-87
2023/01/29 01:59:03;;;;;;;;;;;;;;;;;;6265630;22;20289;-87
2023/01/29 02:01:29;;;;;;;;;;;;;;;;;;6237582;22;19993;-87
2023/01/29 02:09:34;;;;;;;;;;;;;;;;;;6264626;22;19984;-87
2023/01/29 02:12:00;;;;;;;;;;;;;;;;;;6241523;22;19972;-87
2023/01/29 02:14:26;;;;;;;;;;;;;;;;;;6237567;22;19918;-87
2023/01/29 02:16:52;;;;;;;;;;;;;;;;;;6240744;22;19926;-87
2023/01/29 02:19:18;;;;;;;;;;;;;;;;;;6265205;22;19919;-87
2023/01/29 02:21:44;;;;;;;;;;;;;;;;;;6265155;22;20258;-86
2023/01/29 02:24:10;;;;;;;;;;;;;;;;;;6261931;22;20135;-87
2023/01/29 02:26:36;;;;;;;;;;;;;;;;;;6266976;22;19925;-88
2023/01/29 02:29:21;;;;;;;;;;;;;;;;;;6266153;22;19919;-87
2023/01/29 02:31:47;;;;;;;;;;;;;;;;;;6239844;22;19930;-87
2023/01/29 02:34:13;;;;;;;;;;;;;;;;;;6236578;22;19934;-87
2023/01/29 02:36:39;;;;;;;;;;;;;;;;;;6265667;22;19918;-87
2023/01/29 02:39:05;;;;;;;;;;;;;;;;;;6237440;22;20603;-87
2023/01/29 02:41:31;;;;;;;;;;;;;;;;;;6236633;22;20236;-87
2023/01/29 02:43:57;;;;;;;;;;;;;;;;;;6265620;22;19972;-87
2023/01/29 02:46:23;;;;;;;;;;;;;;;;;;6237016;22;19919;-87
2023/01/29 02:48:48;;;;;;;;;;;;;;;;;;6238492;22;19923;-88
2023/01/29 02:51:14;;;;;;;;;;;;;;;;;;6235261;22;19923;-87
2023/01/29 02:53:40;;;;;;;;;;;;;;;;;;6241040;22;19923;-88
2023/01/29 02:56:06;;;;;;;;;;;;;;;;;;6243607;22;19969;-87
2023/01/29 02:58:32;;;;;;;;;;;;;;;;;;6237962;22;19960;-87
2023/01/29 03:00:58;;;;;;;;;;;;;;;;;;6267734;22;20242;-87
2023/01/29 03:03:24;;;;;;;;;;;;;;;;;;6234032;22;19919;-87
2023/01/29 03:05:52;;;;;;;;;;;;;;;;;;6263272;22;19919;-87
2023/01/29 03:08:18;;;;;;;;;;;;;;;;;;6236300;22;20396;-88
2023/01/29 03:10:44;;;;;;;;;;;;;;;;;;6238571;22;19923;-87
2023/01/29 03:13:10;;;;;;;;;;;;;;;;;;6263077;22;20358;-87
2023/01/29 03:15:38;;;;;;;;;;;;;;;;;;6239541;22;20318;-87
2023/01/29 03:18:04;;;;;;;;;;;;;;;;;;6239350;22;19926;-87
2023/01/29 03:20:31;;;;;;;;;;;;;;;;;;6263415;22;20951;-87
2023/01/29 03:22:57;;;;;;;;;;;;;;;;;;6265803;22;19915;-87
2023/01/29 03:33:37;;;;;;;;;;;;;;;;;;6266174;22;20005;-87
2023/01/29 03:36:03;;;;;;;;;;;;;;;;;;6239170;22;20421;-87
2023/01/29 03:38:30;;;;;;;;;;;;;;;;;;6237604;22;20778;-87
2023/01/29 03:40:56;;;;;;;;;;;;;;;;;;6238327;22;19925;-88
2023/01/29 03:43:22;;;;;;;;;;;;;;;;;;6232893;22;19922;-87
2023/01/29 03:45:48;;;;;;;;;;;;;;;;;;6236299;22;20164;-87
2023/01/29 03:48:14;;;;;;;;;;;;;;;;;;6261500;22;19954;-87
2023/01/29 03:50:40;;;;;;;;;;;;;;;;;;6237917;22;20093;-88
2023/01/29 03:53:06;;;;;;;;;;;;;;;;;;6234515;22;19923;-87
2023/01/29 03:55:32;;;;;;;;;;;;;;;;;;6235565;22;19945;-87
2023/01/29 03:57:58;;;;;;;;;;;;;;;;;;6237730;22;19982;-88
2023/01/29 04:00:24;;;;;;;;;;;;;;;;;;6262434;22;19930;-87
2023/01/29 04:02:50;;;;;;;;;;;;;;;;;;6239004;22;20163;-87
2023/01/29 04:05:16;;;;;;;;;;;;;;;;;;6236848;22;20380;-87
2023/01/29 04:07:42;;;;;;;;;;;;;;;;;;6266546;22;19919;-87
2023/01/29 04:10:08;;;;;;;;;;;;;;;;;;6264757;22;19951;-87
2023/01/29 04:12:34;;;;;;;;;;;;;;;;;;6258921;22;19922;-87
2023/01/29 04:15:00;;;;;;;;;;;;;;;;;;6262892;22;20377;-87
2023/01/29 04:17:26;;;;;;;;;;;;;;;;;;6261854;22;20282;-86
2023/01/29 04:19:52;;;;;;;;;;;;;;;;;;6259623;22;20025;-87
2023/01/29 04:22:18;;;;;;;;;;;;;;;;;;6235112;22;19919;-88
2023/01/29 04:24:44;;;;;;;;;;;;;;;;;;6234183;22;19919;-87
2023/01/29 04:27:10;;;;;;;;;;;;;;;;;;6235215;22;19980;-87
2023/01/29 04:29:37;;;;;;;;;;;;;;;;;;6261676;22;19918;-87
2023/01/29 04:32:03;;;;;;;;;;;;;;;;;;6262183;22;20841;-87
2023/01/29 04:34:29;;;;;;;;;;;;;;;;;;6260129;22;19919;-86
2023/01/29 04:36:55;;;;;;;;;;;;;;;;;;6235984;22;20461;-87
2023/01/29 04:39:21;;;;;;;;;;;;;;;;;;6234644;22;20011;-87
2023/01/29 04:41:47;;;;;;;;;;;;;;;;;;6236055;22;19915;-88
2023/01/29 04:44:13;;;;;;;;;;;;;;;;;;6230661;22;19930;-88
2023/01/29 04:46:39;;;;;;;;;;;;;;;;;;6263790;22;19919;-87
2023/01/29 04:49:05;;;;;;;;;;;;;;;;;;6235933;22;19965;-88
2023/01/29 04:51:31;;;;;;;;;;;;;;;;;;6231267;22;19950;-87
2023/01/29 04:53:57;;;;;;;;;;;;;;;;;;6261568;22;19926;-87
2023/01/29 04:56:23;;;;;;;;;;;;;;;;;;6234535;22;20243;-87
2023/01/29 04:58:49;;;;;;;;;;;;;;;;;;6235710;22;19986;-87
2023/01/29 05:01:15;;;;;;;;;;;;;;;;;;6232719;22;19919;-88
2023/01/29 05:03:40;;;;;;;;;;;;;;;;;;6261388;22;19926;-88
2023/01/29 05:06:06;;;;;;;;;;;;;;;;;;6236696;22;19950;-88
2023/01/29 05:08:33;;;;;;;;;;;;;;;;;;6259290;22;19919;-88
2023/01/29 05:10:59;;;;;;;;;;;;;;;;;;6236002;22;19919;-87
2023/01/29 05:13:24;;;;;;;;;;;;;;;;;;6230109;22;19929;-87
2023/01/29 05:15:50;;;;;;;;;;;;;;;;;;6237397;22;19919;-88
2023/01/29 05:18:16;;;;;;;;;;;;;;;;;;6234849;22;19926;-88
2023/01/29 05:20:42;;;;;;;;;;;;;;;;;;6263052;22;19919;-88
2023/01/29 05:23:09;;;;;;;;;;;;;;;;;;6264315;22;20607;-87
2023/01/29 05:25:35;;;;;;;;;;;;;;;;;;6264164;22;19973;-87
2023/01/29 05:28:19;;;;;;;;;;;;;;;;;;6237461;22;20339;-87
2023/01/29 05:30:45;;;;;;;;;;;;;;;;;;6239178;22;19919;-88
2023/01/29 05:33:11;;;;;;;;;;;;;;;;;;6239723;22;19930;-88
2023/01/29 05:35:37;;;;;;;;;;;;;;;;;;6239875;22;19919;-87
2023/01/29 05:38:03;;;;;;;;;;;;;;;;;;6239168;22;20183;-88
2023/01/29 05:40:29;;;;;;;;;;;;;;;;;;6240966;22;19922;-87
2023/01/29 05:42:55;;;;;;;;;;;;;;;;;;6265765;22;19994;-87
2023/01/29 05:45:21;;;;;;;;;;;;;;;;;;6236795;22;20664;-87
2023/01/29 05:47:47;;;;;;;;;;;;;;;;;;6242366;22;20255;-87
2023/01/29 05:50:13;;;;;;;;;;;;;;;;;;6263314;22;19919;-87
2023/01/29 05:52:39;;;;;;;;;;;;;;;;;;6242395;22;19998;-87
2023/01/29 05:55:05;;;;;;;;;;;;;;;;;;6265281;22;20025;-87
2023/01/29 05:57:31;;;;;;;;;;;;;;;;;;6236369;22;19919;-88
2023/01/29 05:59:57;;;;;;;;;;;;;;;;;;6266131;22;19919;-87
2023/01/29 06:02:23;;;;;;;;;;;;;;;;;;6264061;22;19947;-87
2023/01/29 06:04:49;;;;;;;;;;;;;;;;;;6243181;22;19919;-87
2023/01/29 06:07:15;;;;;;;;;;;;;;;;;;6239444;22;19918;-88
2023/01/29 06:09:40;;;;;;;;;;;;;;;;;;6241817;22;19919;-88
2023/01/29 06:12:06;;;;;;;;;;;;;;;;;;6242846;22;19922;-88
2023/01/29 06:14:32;;;;;;;;;;;;;;;;;;6266763;22;20334;-88
2023/01/29 06:16:58;;;;;;;;;;;;;;;;;;6242741;22;20289;-87
2023/01/29 06:19:24;;;;;;;;;;;;;;;;;;6266081;22;19926;-87
2023/01/29 06:21:50;;;;;;;;;;;;;;;;;;6296619;22;19919;-87
2023/01/29 06:24:16;;;;;;;;;;;;;;;;;;6241570;22;20003;-87
2023/01/29 06:26:42;;;;;;;;;;;;;;;;;;6241713;22;19926;-88
2023/01/29 06:29:08;;;;;;;;;;;;;;;;;;6242740;22;19914;-88
2023/01/29 06:31:34;;;;;;;;;;;;;;;;;;6267000;22;19961;-87
2023/01/29 06:34:00;;;;;;;;;;;;;;;;;;6242914;22;20301;-88
2023/01/29 06:36:26;;;;;;;;;;;;;;;;;;6239100;22;19919;-87
2023/01/29 06:38:52;;;;;;;;;;;;;;;;;;6241637;22;19925;-87
2023/01/29 06:41:18;;;;;;;;;;;;;;;;;;6235850;22;19915;-87
2023/01/29 06:43:44;;;;;;;;;;;;;;;;;;6264149;22;19945;-88
2023/01/29 06:46:10;;;;;;;;;;;;;;;;;;6235263;22;19953;-88
2023/01/29 06:48:36;;;;;;;;;;;;;;;;;;6264584;22;19945;-87
2023/01/29 06:51:02;;;;;;;;;;;;;;;;;;6241077;22;19919;-87
2023/01/29 06:53:28;;;;;;;;;;;;;;;;;;6262700;22;20029;-87
2023/01/29 06:55:53;;;;;;;;;;;;;;;;;;6240637;22;19931;-87
2023/01/29 06:58:19;;;;;;;;;;;;;;;;;;6262572;22;19919;-87
2023/01/29 07:00:45;;;;;;;;;;;;;;;;;;6264974;22;19968;-87
2023/01/29 07:03:11;;;;;;;;;;;;;;;;;;6239008;22;19936;-88
2023/01/29 07:05:37;;;;;;;;;;;;;;;;;;6238343;22;20481;-88
2023/01/29 07:08:03;;;;;;;;;;;;;;;;;;6263196;22;20514;-87
2023/01/29 07:10:29;;;;;;;;;;;;;;;;;;6263230;22;19980;-87
2023/01/29 07:12:55;;;;;;;;;;;;;;;;;;6264733;22;19922;-87
2023/01/29 07:15:21;;;;;;;;;;;;;;;;;;6260498;22;19925;-87
2023/01/29 07:17:47;;;;;;;;;;;;;;;;;;6236921;22;19919;-88
2023/01/29 07:20:13;;;;;;;;;;;;;;;;;;6238244;22;19930;-87
2023/01/29 07:22:39;;;;;;;;;;;;;;;;;;6239217;22;20629;-87
2023/01/29 07:25:05;;;;;;;;;;;;;;;;;;6240649;22;19919;-88
2023/01/29 07:27:31;;;;;;;;;;;;;;;;;;6238042;22;20240;-88
2023/01/29 07:29:58;;;;;;;;;;;;;;;;;;6260695;22;20583;-89
2023/01/29 07:32:25;;;;;;;;;;;;;;;;;;6237045;22;19930;-89
2023/01/29 07:34:53;;;;;;;;;;;;;;;;;;6242587;22;19921;-89
2023/01/29 07:37:20;;;;;;;;;;;;;;;;;;6238179;22;19915;-89
2023/01/29 07:39:47;;;;;;;;;;;;;;;;;;6228060;22;19944;-88
2023/01/29 07:42:14;;;;;;;;;;;;;;;;;;6264597;22;19930;-88
2023/01/29 07:44:42;;;;;;;;;;;;;;;;;;6238739;22;19922;-89
2023/01/29 07:47:09;;;;;;;;;;;;;;;;;;6241726;22;19919;-89
2023/01/29 07:49:37;;;;;;;;;;;;;;;;;;6236983;22;19918;-89
2023/01/29 07:52:04;;;;;;;;;;;;;;;;;;6240413;22;19923;-89
2023/01/29 07:54:32;;;;;;;;;;;;;;;;;;6239395;22;20308;-88
2023/01/29 07:56:59;;;;;;;;;;;;;;;;;;6239595;22;19986;-89
2023/01/29 07:59:26;;;;;;;;;;;;;;;;;;6236956;22;19922;-89
2023/01/29 08:01:54;;;;;;;;;;;;;;;;;;6267136;22;20247;-89
2023/01/29 08:04:21;;;;;;;;;;;;;;;;;;6265464;22;19926;-89
2023/01/29 08:06:48;;;;;;;;;;;;;;;;;;6268238;22;19918;-89
2023/01/29 08:09:15;;;;;;;;;;;;;;;;;;6238247;22;19919;-89
2023/01/29 08:11:42;;;;;;;;;;;;;;;;;;6239929;22;19919;-88
2023/01/29 08:14:09;;;;;;;;;;;;;;;;;;6240997;22;20232;-88
2023/01/29 08:16:37;;;;;;;;;;;;;;;;;;6240060;22;19926;-88
2023/01/29 08:19:04;;;;;;;;;;;;;;;;;;6238296;22;19918;-89
2023/01/29 08:21:32;;;;;;;;;;;;;;;;;;6263222;22;19957;-88
2023/01/29 08:23:59;;;;;;;;;;;;;;;;;;6263445;22;20619;-89
2023/01/29 08:26:26;;;;;;;;;;;;;;;;;;6262326;22;19919;-89
2023/01/29 08:28:53;;;;;;;;;;;;;;;;;;6236772;22;19925;-89
2023/01/29 08:31:20;;;;;;;;;;;;;;;;;;6259515;22;19922;-89
2023/01/29 08:33:47;;;;;;;;;;;;;;;;;;6234849;22;19923;-89
2023/01/29 08:36:15;;;;;;;;;;;;;;;;;;6233256;22;19965;-89
2023/01/29 08:38:42;;;;;;;;;;;;;;;;;;6238744;22;20250;-89
2023/01/29 08:41:09;;;;;;;;;;;;;;;;;;6237453;22;20654;-89
2023/01/29 08:43:39;;;;;;;;;;;;;;;;;;6236094;22;19925;-89
2023/01/29 08:46:06;;;;;;;;;;;;;;;;;;6239247;22;19926;-89
2023/01/29 08:48:33;;;;;;;;;;;;;;;;;;6235997;22;19922;-89
2023/01/29 08:51:01;;;;;;;;;;;;;;;;;;6262448;22;20372;-89
2023/01/29 08:53:28;;;;;;;;;;;;;;;;;;6234883;22;19972;-89
2023/01/29 08:55:55;;;;;;;;;;;;;;;;;;6263330;22;19919;-90
2023/01/29 08:58:22;;;;;;;;;;;;;;;;;;6261817;22;19926;-89
2023/01/29 09:00:49;;;;;;;;;;;;;;;;;;6263944;22;19919;-89
2023/01/29 09:03:17;;;;;;;;;;;;;;;;;;6235951;22;20255;-89
2023/01/29 09:05:45;;;;;;;;;;;;;;;;;;6238494;22;19919;-89
2023/01/29 09:08:12;;;;;;;;;;;;;;;;;;6264175;22;19919;-89
2023/01/29 09:10:39;;;;;;;;;;;;;;;;;;6263826;22;19989;-88
2023/01/29 09:13:07;;;;;;;;;;;;;;;;;;6238947;22;19930;-88
2023/01/29 09:15:34;;;;;;;;;;;;;;;;;;6237493;22;20046;-89
2023/01/29 09:18:04;;;;;;;;;;;;;;;;;;6236198;22;19997;-88
2023/01/29 09:20:31;;;;;;;;;;;;;;;;;;6264226;22;20318;-89
2023/01/29 09:22:58;;;;;;;;;;;;;;;;;;6236987;22;19915;-88
2023/01/29 09:25:26;;;;;;;;;;;;;;;;;;6262940;22;19953;-88
2023/01/29 09:27:53;;;;;;;;;;;;;;;;;;6237800;22;19918;-89
2023/01/29 09:30:20;;;;;;;;;;;;;;;;;;6235801;22;20259;-89
2023/01/29 09:32:48;;;;;;;;;;;;;;;;;;6238780;22;20232;-88
2023/01/29 09:35:15;;;;;;;;;;;;;;;;;;6236194;22;19923;-89
2023/01/29 09:37:42;;;;;;;;;;;;;;;;;;6240971;22;19918;-89
2023/01/29 09:40:09;;;;;;;;;;;;;;;;;;6264150;22;19914;-89
2023/01/29 09:42:38;;;;;;;;;;;;;;;;;;6240762;22;19919;-89
2023/01/29 09:45:05;;;;;;;;;;;;;;;;;;6236425;22;19922;-88
2023/01/29 09:47:33;;;;;;;;;;;;;;;;;;6239076;22;19918;-91
2023/01/29 09:49:59;;;;;;;;;;;;;;;;;;6264149;22;19950;-88
2023/01/29 09:52:27;;;;;;;;;;;;;;;;;;6235348;22;19929;-89
2023/01/29 09:54:55;;;;;;;;;;;;;;;;;;6264028;22;19923;-88
2023/01/29 09:57:21;;;;;;;;;;;;;;;;;;6238056;22;19918;-88
2023/01/29 09:59:49;;;;;;;;;;;;;;;;;;6238480;22;19919;-89
2023/01/29 10:02:16;;;;;;;;;;;;;;;;;;6258468;22;19918;-88
2023/01/29 10:04:43;;;;;;;;;;;;;;;;;;6238412;22;19919;-87
2023/01/29 10:07:10;;;;;;;;;;;;;;;;;;6263776;22;20270;-89
2023/01/29 10:09:37;;;;;;;;;;;;;;;;;;6239008;22;19919;-88
2023/01/29 10:12:04;;;;;;;;;;;;;;;;;;6242067;22;19934;-90
2023/01/29 10:14:36;;;;;;;;;;;;;;;;;;6262944;22;19919;-89
2023/01/29 10:17:03;;;;;;;;;;;;;;;;;;6262400;22;19919;-88
2023/01/29 10:19:31;;;;;;;;;;;;;;;;;;6235739;22;20536;-89
2023/01/29 10:21:58;;;;;;;;;;;;;;;;;;6240435;22;20255;-89
2023/01/29 10:24:25;;;;;;;;;;;;;;;;;;6236922;22;19918;-88
2023/01/29 10:26:53;;;;;;;;;;;;;;;;;;6240737;22;19939;-88
2023/01/29 10:29:20;;;;;;;;;;;;;;;;;;6236686;22;19919;-89
2023/01/29 10:31:48;;;;;;;;;;;;;;;;;;6263372;22;19919;-88
2023/01/29 10:34:15;;;;;;;;;;;;;;;;;;6236625;22;19919;-88
2023/01/29 10:36:43;;;;;;;;;;;;;;;;;;6239419;22;19985;-89
2023/01/29 10:39:12;;;;;;;;;;;;;;;;;;6239209;22;20382;-88
2023/01/29 10:41:39;;;;;;;;;;;;;;;;;;6266385;22;19914;-88
2023/01/29 10:44:06;;;;;;;;;;;;;;;;;;6238673;22;19977;-87
2023/01/29 10:46:33;;;;;;;;;;;;;;;;;;6236660;22;19918;-89
2023/01/29 10:49:00;;;;;;;;;;;;;;;;;;6265241;22;19919;-88
2023/01/29 10:51:27;;;;;;;;;;;;;;;;;;6263094;22;19919;-88
2023/01/29 10:53:54;;;;;;;;;;;;;;;;;;6240786;22;19927;-88
2023/01/29 10:56:22;;;;;;;;;;;;;;;;;;6236037;22;19926;-88
2023/01/29 10:58:49;;;;;;;;;;;;;;;;;;6264832;22;19946;-88
2023/01/29 11:01:16;;;;;;;;;;;;;;;;;;6237898;22;20421;-89
2023/01/29 11:03:43;;;;;;;;;;;;;;;;;;6240739;22;19990;-87
2023/01/29 11:06:13;;;;;;;;;;;;;;;;;;6235198;22;19919;-89
2023/01/29 11:08:41;;;;;;;;;;;;;;;;;;6262418;22;20355;-88
2023/01/29 11:11:08;;;;;;;;;;;;;;;;;;6237321;22;19945;-90
2023/01/29 11:13:35;;;;;;;;;;;;;;;;;;6238440;22;20220;-89
2023/01/29 11:16:03;;;;;;;;;;;;;;;;;;6262770;22;19921;-88
2023/01/29 11:18:30;;;;;;;;;;;;;;;;;;6233141;22;20345;-88
2023/01/29 11:20:57;;;;;;;;;;;;;;;;;;6263714;22;19994;-87
2023/01/29 11:23:25;;;;;;;;;;;;;;;;;;6262019;22;20465;-87
2023/01/29 11:25:52;;;;;;;;;;;;;;;;;;6238486;22;19915;-88
2023/01/29 11:28:19;;;;;;;;;;;;;;;;;;6260988;22;19926;-89
2023/01/29 11:30:47;;;;;;;;;;;;;;;;;;6223457;22;19919;-89
2023/01/29 11:33:16;;;;;;;;;;;;;;;;;;6233384;22;19923;-87
2023/01/29 11:35:43;;;;;;;;;;;;;;;;;;6260559;22;20369;-87
2023/01/29 11:38:10;;;;;;;;;;;;;;;;;;6236168;22;19919;-87
2023/01/29 11:40:38;;;;;;;;;;;;;;;;;;6237196;22;19926;-87
2023/01/29 11:43:05;;;;;;;;;;;;;;;;;;6290164;22;20276;-87
2023/01/29 11:45:33;;;;;;;;;;;;;;;;;;6258526;22;19930;-88
2023/01/29 11:48:00;;;;;;;;;;;;;;;;;;6235982;22;20705;-87
2023/01/29 11:50:27;;;;;;;;;;;;;;;;;;6262282;22;20004;-87
2023/01/29 11:52:54;;;;;;;;;;;;;;;;;;6240094;22;19923;-87
2023/01/29 11:55:20;;;;;;;;;;;;;;;;;;6257279;22;20041;-87
2023/01/29 11:57:46;;;;;;;;;;;;;;;;;;6238189;22;19919;-87
2023/01/29 12:00:14;;;;;;;;;;;;;;;;;;6265571;22;19918;-87
2023/01/29 12:02:41;;;;;;;;;;;;;;;;;;6266128;22;20332;-88
2023/01/29 12:05:08;;;;;;;;;;;;;;;;;;6266189;22;19919;-87
2023/01/29 12:07:34;;;;;;;;;;;;;;;;;;6265102;22;19918;-87
2023/01/29 12:10:00;;;;;;;;;;;;;;;;;;6242221;22;19914;-87
2023/01/29 12:12:27;;;;;;;;;;;;;;;;;;6263839;22;20386;-88
2023/01/29 12:14:53;;;;;;;;;;;;;;;;;;6238146;22;20358;-87
2023/01/29 12:17:19;;;;;;;;;;;;;;;;;;6259300;22;19919;-91
2023/01/29 12:19:45;;;;;;;;;;;;;;;;;;6236616;22;19915;-88
2023/01/29 12:22:11;;;;;;;;;;;;;;;;;;6235398;22;19967;-88
2023/01/29 12:24:37;;;;;;;;;;;;;;;;;;6235482;22;20350;-88
2023/01/29 12:27:03;;;;;;;;;;;;;;;;;;6234475;22;20408;-89
2023/01/29 12:29:29;;;;;;;;;;;;;;;;;;6230571;22;19923;-88
2023/01/29 12:31:54;;;;;;;;;;;;;;;;;;6263279;22;19953;-88
2023/01/29 12:34:20;;;;;;;;;;;;;;;;;;6261259;22;19925;-88
2023/01/29 12:36:51;;;;;;;;;;;;;;;;;;6290014;22;19919;-88
2023/01/29 12:39:17;;;;;;;;;;;;;;;;;;6235294;22;19950;-89
2023/01/29 12:41:43;;;;;;;;;;;;;;;;;;6264640;22;19981;-88
2023/01/29 12:44:09;;;;;;;;;;;;;;;;;;6235914;22;19919;-88
2023/01/29 12:46:35;;;;;;;;;;;;;;;;;;6263332;22;19919;-88
2023/01/29 12:49:01;;;;;;;;;;;;;;;;;;6262870;22;19919;-89
2023/01/29 12:51:27;;;;;;;;;;;;;;;;;;6261460;22;19919;-88
2023/01/29 12:53:53;;;;;;;;;;;;;;;;;;6234741;22;19934;-88
2023/01/29 12:56:19;;;;;;;;;;;;;;;;;;6259176;22;20410;-87
2023/01/29 12:58:45;;;;;;;;;;;;;;;;;;6237085;22;19918;-87
2023/01/29 13:01:11;;;;;;;;;;;;;;;;;;6258607;22;19919;-88
2023/01/29 13:03:37;;;;;;;;;;;;;;;;;;6236946;22;20013;-88
2023/01/29 13:06:03;;;;;;;;;;;;;;;;;;6261568;22;19923;-88
2023/01/29 13:08:29;;;;;;;;;;;;;;;;;;6233001;22;20389;-88
2023/01/29 13:10:55;;;;;;;;;;;;;;;;;;6260715;22;20467;-88
2023/01/29 13:13:21;;;;;;;;;;;;;;;;;;6260814;22;20410;-88
2023/01/29 13:15:47;;;;;;;;;;;;;;;;;;6238006;22;19919;-88
2023/01/29 13:18:13;;;;;;;;;;;;;;;;;;6261367;22;19919;-88
2023/01/29 13:20:38;;;;;;;;;;;;;;;;;;6238576;22;20360;-87
2023/01/29 13:23:04;;;;;;;;;;;;;;;;;;6236697;22;19918;-87
2023/01/29 13:25:30;;;;;;;;;;;;;;;;;;6262300;22;19923;-87
2023/01/29 13:27:56;;;;;;;;;;;;;;;;;;6264198;22;19919;-88
2023/01/29 13:30:22;;;;;;;;;;;;;;;;;;6236197;22;19924;-87
2023/01/29 13:32:48;;;;;;;;;;;;;;;;;;6236352;22;20032;-88
2023/01/29 13:35:15;;;;;;;;;;;;;;;;;;6233713;22;19926;-88
2023/01/29 13:37:41;;;;;;;;;;;;;;;;;;6237556;22;19919;-88
2023/01/29 13:40:07;;;;;;;;;;;;;;;;;;6263042;22;20267;-88
2023/01/29 13:42:33;;;;;;;;;;;;;;;;;;6233317;22;19937;-87
2023/01/29 13:44:59;;;;;;;;;;;;;;;;;;6263151;22;19926;-88
2023/01/29 13:47:25;;;;;;;;;;;;;;;;;;6237901;22;19942;-88
2023/01/29 13:49:51;;;;;;;;;;;;;;;;;;6261701;22;20357;-88
2023/01/29 13:52:17;;;;;;;;;;;;;;;;;;6232564;22;19919;-88
2023/01/29 13:54:43;;;;;;;;;;;;;;;;;;6237096;22;19934;-87
2023/01/29 13:57:09;;;;;;;;;;;;;;;;;;6234431;22;19923;-88
2023/01/29 13:59:35;;;;;;;;;;;;;;;;;;6239343;22;19925;-87
2023/01/29 14:02:02;;;;;;;;;;;;;;;;;;6261907;22;19922;-88
2023/01/29 14:04:29;;;;;;;;;;;;;;;;;;6238999;22;19929;-89
2023/01/29 14:06:55;;;;;;;;;;;;;;;;;;6241597;22;19918;-88
2023/01/29 14:09:21;;;;;;;;;;;;;;;;;;6237753;22;19919;-88
2023/01/29 14:11:47;;;;;;;;;;;;;;;;;;6242810;22;19990;-88
2023/01/29 14:14:13;;;;;;;;;;;;;;;;;;6237350;22;20045;-88
2023/01/29 14:16:39;;;;;;;;;;;;;;;;;;6239362;22;20255;-88
2023/01/29 14:19:05;;;;;;;;;;;;;;;;;;6264375;22;19919;-88
2023/01/29 14:21:31;;;;;;;;;;;;;;;;;;6237221;22;19918;-88
2023/01/29 14:23:57;;;;;;;;;;;;;;;;;;6262123;22;20414;-87
2023/01/29 14:26:23;;;;;;;;;;;;;;;;;;6259871;22;19930;-87
2023/01/29 14:28:49;;;;;;;;;;;;;;;;;;6264181;22;19926;-88
2023/01/29 14:31:15;;;;;;;;;;;;;;;;;;6235289;22;20346;-88
2023/01/29 14:33:40;;;;;;;;;;;;;;;;;;6262456;22;19965;-88
2023/01/29 14:36:07;;;;;;;;;;;;;;;;;;6235500;22;19919;-89
2023/01/29 14:38:32;;;;;;;;;;;;;;;;;;6234487;22;19997;-88
2023/01/29 14:40:58;;;;;;;;;;;;;;;;;;6262331;22;19977;-88
2023/01/29 14:43:24;;;;;;;;;;;;;;;;;;6234803;22;19915;-89
2023/01/29 14:45:50;;;;;;;;;;;;;;;;;;6237157;22;19923;-87
2023/01/29 14:48:17;;;;;;;;;;;;;;;;;;6233035;22;19923;-88
2023/01/29 14:50:43;;;;;;;;;;;;;;;;;;6262118;22;19919;-87
2023/01/29 14:53:08;;;;;;;;;;;;;;;;;;6236011;22;19923;-87
2023/01/29 14:55:34;;;;;;;;;;;;;;;;;;6235468;22;20239;-92
2023/01/29 14:58:00;;;;;;;;;;;;;;;;;;6260953;22;19968;-88
2023/01/29 15:00:26;;;;;;;;;;;;;;;;;;6260188;22;20259;-87
2023/01/29 15:02:53;;;;;;;;;;;;;;;;;;6262798;22;19954;-88
2023/01/29 15:05:19;;;;;;;;;;;;;;;;;;6234118;22;20383;-88
2023/01/29 15:07:57;;;;;;;;;;;;;;;;;;6237480;22;19918;-89
2023/01/29 15:10:38;;;;;;;;;;;;;;;;;;6236415;22;20403;-87
2023/01/29 15:13:16;;;;;;;;;;;;;;;;;;6239134;22;19923;-88
2023/01/29 15:16:07;;;;;;;;;;;;;;;;;;;;;
2023/01/29 15:18:45;;;;;;;;;;;;;;;;;;6264009;22;19964;-87
2023/01/29 15:21:14;;;;;;;;;;;;;;;;;;6237239;22;19964;-87
2023/01/29 15:23:50;;;;;;;;;;;;;;;;;;;;;
2023/01/29 15:26:19;;;;;;;;;;;;;;;;;;6265444;22;19919;-87
2023/01/29 15:29:01;;;;;;;;;;;;;;;;;;6239283;22;20738;-87
2023/01/29 15:31:36;;;;;;;;;;;;;;;;;;6265069;22;19915;-88
2023/01/29 15:34:11;;;;;;;;;;;;;;;;;;6263028;22;20001;-88
2023/01/29 15:36:40;;;;;;;;;;;;;;;;;;6242071;22;19922;-88
2023/01/29 15:39:12;;;;;;;;;;;;;;;;;;6241938;22;19919;-88
2023/01/29 15:41:41;;;;;;;;;;;;;;;;;;6237392;22;20319;-87
2023/01/29 15:44:17;;;;;;;;;;;;;;;;;;;;;
2023/01/29 15:46:54;;;;;;;;;;;;;;;;;;6264930;22;19994;-87
2023/01/29 15:49:23;;;;;;;;;;;;;;;;;;6236284;22;19929;-87
2023/01/29 15:51:59;;;;;;;;;;;;;;;;;;6240804;22;19989;-87
2023/01/29 15:54:33;;;;;;;;;;;;;;;;;;6235848;22;19923;-87
2023/01/29 16:00:10;;;;;;;;;;;;;;;;;;6263749;22;20424;-87
2023/01/29 16:05:33;;;;;;;;;;;;;;;;;;6140640;23;19952;-87
2023/01/29 16:08:01;;;;;;;;;;;;;;;;;;6119582;23;19926;-89
2023/01/29 16:10:27;;;;;;;;;;;;;;;;;;6119020;23;20454;-88
2023/01/29 16:12:58;;;;;;;;;;;;;;;;;;6117557;23;20420;-87
2023/01/29 16:15:24;;;;;;;;;;;;;;;;;;6114893;23;20028;-88
2023/01/29 16:17:51;;;;;;;;;;;;;;;;;;6140793;23;20573;-87
2023/01/29 16:20:20;;;;;;;;;;;;;;;;;;6111650;23;20267;-86
2023/01/29 16:22:46;;;;;;;;;;;;;;;;;;6116519;23;19920;-87
2023/01/29 16:25:12;;;;;;;;;;;;;;;;;;6111083;23;19931;-86
2023/01/29 16:27:42;;;;;;;;;;;;;;;;;;6162398;23;19927;-86
2023/01/29 16:30:08;;;;;;;;;;;;;;;;;;6193449;23;20353;-86
2023/01/29 16:32:48;;;;;;;;;;;;;;;;;;6149219;23;19931;-86
2023/01/29 16:35:15;;;;;;;;;;;;;;;;;;6166901;23;19966;-86
2023/01/29 16:37:42;;;;;;;;;;;;;;;;;;6145229;23;19978;-88
2023/01/29 16:40:10;;;;;;;;;;;;;;;;;;6171996;23;19955;-86
2023/01/29 16:42:40;;;;;;;;;;;;;;;;;;6145945;23;20290;-87
2023/01/29 16:45:06;;;;;;;;;;;;;;;;;;6148779;23;19916;-87
2023/01/29 16:47:32;;;;;;;;;;;;;;;;;;6222581;22;20295;-87
2023/01/29 16:49:59;;;;;;;;;;;;;;;;;;6267564;22;19930;-87
2023/01/29 16:52:25;;;;;;;;;;;;;;;;;;6263933;22;20025;-86
2023/01/29 16:54:54;;;;;;;;;;;;;;;;;;6266629;22;20328;-87
2023/01/29 16:57:22;;;;;;;;;;;;;;;;;;6260515;22;19973;-87
2023/01/29 16:59:48;;;;;;;;;;;;;;;;;;6239279;22;19918;-86
2023/01/29 17:02:14;;;;;;;;;;;;;;;;;;6262748;22;19944;-87
2023/01/29 17:04:43;;;;;;;;;;;;;;;;;;6242809;22;20536;-87
2023/01/29 17:07:09;;;;;;;;;;;;;;;;;;6266453;22;19919;-86
2023/01/29 17:09:42;;;;;;;;;;;;;;;;;;6236476;22;19914;-86
2023/01/29 17:12:08;;;;;;;;;;;;;;;;;;6237678;22;20385;-88
2023/01/29 17:14:37;;;;;;;;;;;;;;;;;;6239306;22;20033;-88